Time;durP1;ratioP1;P1;durP2;ratioP2;P2;SDS_P1;SDS_P2;PMS_P1;PMS_P2;Temp;Humidity;BMP_temperature;BMP_pressure;BME280_temperature;BME280_humidity;BME280_pressure;Samples;Min_cycle;Max_cycle;Signal;HPM_P1;HPM_P2
2022/08/11 00:02:27;;;;;;;3.15;1.35;;;;;;;;;;5057477;28;20222;-74
2022/08/11 00:04:54;;;;;;;2.95;1.67;;;;;;;;;;5080758;28;20612;-75
2022/08/11 00:07:24;;;;;;;4.20;1.60;;;;;;;;;;5056831;28;20292;-76
2022/08/11 00:09:49;;;;;;;1.75;1.20;;;;;;;;;;5046310;28;20716;-74
2022/08/11 00:12:17;;;;;;;3.90;1.63;;;;;;;;;;5039342;28;20259;-74
2022/08/11 00:14:45;;;;;;;2.13;1.30;;;;;;;;;;5046281;28;20245;-73
2022/08/11 00:17:12;;;;;;;3.33;1.67;;;;;;;;;;5075272;28;20241;-74
2022/08/11 00:19:43;;;;;;;1.95;1.55;;;;;;;;;;5071443;28;20307;-75
2022/08/11 00:22:11;;;;;;;2.17;1.48;;;;;;;;;;5048207;28;20730;-75
2022/08/11 00:24:39;;;;;;;1.50;1.40;;;;;;;;;;5059720;28;20290;-74
2022/08/11 00:27:04;;;;;;;1.45;1.10;;;;;;;;;;5054420;28;20226;-74
2022/08/11 00:29:35;;;;;;;3.67;1.73;;;;;;;;;;5067381;28;20298;-74
2022/08/11 00:32:02;;;;;;;1.73;1.63;;;;;;;;;;5050953;28;20589;-74
2022/08/11 00:34:32;;;;;;;1.90;1.25;;;;;;;;;;5040031;28;20245;-74
2022/08/11 00:36:57;;;;;;;4.15;1.58;;;;;;;;;;5053046;28;20692;-74
2022/08/11 00:39:28;;;;;;;2.80;1.48;;;;;;;;;;5075480;28;20233;-74
2022/08/11 00:42:15;;;;;;;7.38;1.40;;;;;;;;;;5057912;28;20249;-74
2022/08/11 00:45:13;;;;;;;1.85;1.40;;;;;;;;;;5074722;28;20233;-74
2022/08/11 00:48:06;;;;;;;2.03;1.67;;;;;;;;;;5062559;28;20233;-75
2022/08/11 00:51:19;;;;;;;4.82;1.52;;;;;;;;;;5075963;28;20589;-75
2022/08/11 00:53:48;;;;;;;2.00;1.40;;;;;;;;;;5015785;28;20254;-75
2022/08/11 00:56:49;;;;;;;1.98;1.58;;;;;;;;;;5036118;28;20242;-74
2022/08/11 00:59:19;;;;;;;2.45;1.50;;;;;;;;;;5040906;28;20703;-75
2022/08/11 01:02:13;;;;;;;4.15;1.70;;;;;;;;;;5058358;28;20234;-75
2022/08/11 01:05:02;;;;;;;2.50;1.50;;;;;;;;;;5081581;28;20250;-75
2022/08/11 01:07:57;;;;;;;1.55;1.40;;;;;;;;;;5073444;28;20610;-75
2022/08/11 01:10:59;;;;;;;2.38;1.65;;;;;;;;;;5044350;28;20744;-75
2022/08/11 01:14:02;;;;;;;1.95;1.40;;;;;;;;;;5060321;28;20219;-75
2022/08/11 01:16:52;;;;;;;1.70;1.55;;;;;;;;;;5079773;28;20304;-75
2022/08/11 01:19:51;;;;;;;1.98;1.48;;;;;;;;;;5083515;28;20242;-75
2022/08/11 01:22:54;;;;;;;2.47;1.60;;;;;;;;;;5071880;28;20696;-75
2022/08/11 01:26:00;;;;;;;2.63;1.80;;;;;;;;;;5077824;28;20703;-75
2022/08/11 01:29:07;;;;;;;3.85;1.70;;;;;;;;;;5065978;28;20306;-74
2022/08/11 01:31:48;;;;;;;2.97;1.77;;;;;;;;;;5071509;28;20710;-75
2022/08/11 01:34:25;;;;;;;1.67;1.58;;;;;;;;;;5080211;28;20321;-75
2022/08/11 01:36:57;;;;;;;3.25;1.95;;;;;;;;;;5071642;28;20219;-75
2022/08/11 01:39:34;;;;;;;3.25;1.95;;;;;;;;;;5056489;28;20238;-75
2022/08/11 01:45:40;;;;;;;1.73;1.60;;;;;;;;;;5075310;28;20276;-74
2022/08/11 01:48:15;;;;;;;2.53;1.70;;;;;;;;;;5074216;28;20229;-75
2022/08/11 01:50:53;;;;;;;5.95;1.90;;;;;;;;;;5057652;28;20238;-75
2022/08/11 01:53:44;;;;;;;3.05;1.95;;;;;;;;;;5071926;28;20647;-75
2022/08/11 01:56:09;;;;;;;3.10;2.17;;;;;;;;;;5058425;28;20218;-75
2022/08/11 01:58:37;;;;;;;2.42;1.90;;;;;;;;;;5080477;28;20866;-75
2022/08/11 02:01:36;;;;;;;3.85;2.13;;;;;;;;;;5083179;28;20229;-74
2022/08/11 02:04:08;;;;;;;4.10;2.03;;;;;;;;;;5077443;28;20227;-75
2022/08/11 02:09:47;;;;;;;3.33;1.90;;;;;;;;;;5076525;28;20227;-74
2022/08/11 02:12:30;;;;;;;4.15;2.00;;;;;;;;;;5064491;28;20225;-74
2022/08/11 02:15:25;;;;;;;3.03;2.08;;;;;;;;;;5071437;28;20218;-75
2022/08/11 02:18:03;;;;;;;4.00;2.20;;;;;;;;;;5054562;28;20751;-74
2022/08/11 02:23:39;;;;;;;2.25;2.10;;;;;;;;;;5071232;28;20566;-74
2022/08/11 02:26:21;;;;;;;2.92;1.83;;;;;;;;;;5069349;28;20257;-75
2022/08/11 02:29:12;;;;;;;5.75;1.83;;;;;;;;;;5042596;28;20231;-75
2022/08/11 02:34:43;;;;;;;2.97;2.00;;;;;;;;;;5076395;28;20218;-74
2022/08/11 02:37:23;;;;;;;2.65;2.13;;;;;;;;;;5077133;28;20229;-75
2022/08/11 02:40:00;;;;;;;3.28;1.92;;;;;;;;;;5053426;28;20222;-75
2022/08/11 02:43:15;;;;;;;3.70;2.20;;;;;;;;;;5081853;28;20226;-76
2022/08/11 02:46:19;;;;;;;1.85;1.75;;;;;;;;;;5056640;28;20226;-75
2022/08/11 02:51:52;;;;;;;2.42;2.22;;;;;;;;;;5072900;28;20789;-75
2022/08/11 02:54:31;;;;;;;2.20;1.83;;;;;;;;;;5061826;28;20312;-74
2022/08/11 02:56:59;;;;;;;4.30;2.40;;;;;;;;;;5077639;28;20292;-75
2022/08/11 02:59:49;;;;;;;2.08;1.98;;;;;;;;;;5057295;28;20242;-74
2022/08/11 03:02:33;;;;;;;3.05;2.35;;;;;;;;;;5079860;28;20219;-75
2022/08/11 03:05:07;;;;;;;2.15;2.00;;;;;;;;;;5076771;28;20222;-74
2022/08/11 03:08:05;;;;;;;3.00;2.30;;;;;;;;;;5077860;28;20607;-75
2022/08/11 03:10:41;;;;;;;6.25;2.30;;;;;;;;;;5068138;28;20226;-76
2022/08/11 03:19:10;;;;;;;2.42;2.22;;;;;;;;;;5075880;28;20696;-75
2022/08/11 03:21:47;;;;;;;3.78;2.42;;;;;;;;;;5070317;28;20230;-75
2022/08/11 03:24:19;;;;;;;2.65;2.13;;;;;;;;;;5082098;28;20229;-74
2022/08/11 03:27:11;;;;;;;2.70;2.50;;;;;;;;;;5042342;28;20240;-75
2022/08/11 03:29:43;;;;;;;4.55;2.83;;;;;;;;;;5074990;28;20230;-75
2022/08/11 03:32:19;;;;;;;2.75;2.55;;;;;;;;;;5049668;28;20225;-74
2022/08/11 03:34:51;;;;;;;2.47;2.28;;;;;;;;;;5083149;28;20226;-75
2022/08/11 03:37:53;;;;;;;2.53;2.33;;;;;;;;;;5057619;28;20257;-75
2022/08/11 03:43:26;;;;;;;3.28;2.65;;;;;;;;;;5082307;28;20225;-74
2022/08/11 03:46:05;;;;;;;3.08;2.78;;;;;;;;;;5076303;28;20258;-76
2022/08/11 03:48:50;;;;;;;3.50;2.75;;;;;;;;;;5052551;28;20595;-75
2022/08/11 03:51:22;;;;;;;2.67;2.47;;;;;;;;;;5059155;28;20223;-75
2022/08/11 03:54:09;;;;;;;2.78;2.58;;;;;;;;;;5068737;28;20227;-74
2022/08/11 03:56:59;;;;;;;3.22;2.78;;;;;;;;;;5071291;28;20225;-75
2022/08/11 03:59:43;;;;;;;3.05;2.80;;;;;;;;;;5084127;28;20698;-75
2022/08/11 04:02:27;;;;;;;3.10;2.88;;;;;;;;;;5073924;28;20286;-74
2022/08/11 04:05:11;;;;;;;3.38;2.72;;;;;;;;;;5062358;28;21005;-74
2022/08/11 04:07:46;;;;;;;3.33;2.65;;;;;;;;;;5078909;28;20241;-74
2022/08/11 04:10:25;;;;;;;2.88;2.45;;;;;;;;;;5072687;28;20269;-73
2022/08/11 04:13:16;;;;;;;3.28;2.85;;;;;;;;;;5075266;28;20226;-74
2022/08/11 04:16:14;;;;;;;3.38;3.08;;;;;;;;;;5079123;28;20607;-74
2022/08/11 04:19:01;;;;;;;2.78;2.58;;;;;;;;;;5077053;28;20227;-76
2022/08/11 04:22:04;;;;;;;3.20;3.00;;;;;;;;;;5077737;28;20638;-76
2022/08/11 04:24:55;;;;;;;2.95;2.75;;;;;;;;;;5078600;28;20706;-75
2022/08/11 04:27:46;;;;;;;6.32;2.90;;;;;;;;;;5068050;28;20313;-76
2022/08/11 04:30:29;;;;;;;3.20;3.00;;;;;;;;;;5066983;28;20623;-75
2022/08/11 04:33:30;;;;;;;3.40;3.10;;;;;;;;;;5051837;28;20246;-75
2022/08/11 04:36:14;;;;;;;2.80;2.60;;;;;;;;;;5084253;28;20313;-74
2022/08/11 04:39:05;;;;;;;2.67;2.47;;;;;;;;;;5064473;28;20234;-75
2022/08/11 04:44:55;;;;;;;2.80;2.58;;;;;;;;;;5079614;28;20214;-75
2022/08/11 05:02:50;;;;;;;2.92;2.63;;;;;;;;;;5067847;28;20938;-75
2022/08/11 05:05:29;;;;;;;2.88;2.40;;;;;;;;;;5076399;28;20229;-75
2022/08/11 05:07:58;;;;;;;2.85;2.63;;;;;;;;;;5051222;28;20767;-75
2022/08/11 05:10:59;;;;;;;4.22;2.30;;;;;;;;;;5060136;28;20314;-75
2022/08/11 05:36:49;;;;;;;4.05;2.53;;;;;;;;;;5052757;28;20770;-76
2022/08/11 05:58:38;;;;;;;2.72;2.50;;;;;;;;;;5053207;28;20218;-76
2022/08/11 06:01:04;;;;;;;2.83;2.63;;;;;;;;;;5032795;28;20675;-76
2022/08/11 06:03:30;;;;;;;3.75;2.85;;;;;;;;;;5047693;28;20210;-76
2022/08/11 06:06:00;;;;;;;3.05;2.25;;;;;;;;;;5045311;28;20219;-75
2022/08/11 06:08:30;;;;;;;5.05;2.67;;;;;;;;;;5048582;28;20272;-75
2022/08/11 06:10:59;;;;;;;3.67;2.55;;;;;;;;;;5038644;28;20280;-75
2022/08/11 06:13:25;;;;;;;8.00;2.33;;;;;;;;;;5056126;28;20218;-75
2022/08/11 06:15:54;;;;;;;3.17;2.53;;;;;;;;;;5032018;28;20267;-75
2022/08/11 06:18:20;;;;;;;2.58;2.38;;;;;;;;;;5047426;28;20229;-75
2022/08/11 06:20:55;;;;;;;4.30;2.35;;;;;;;;;;5032995;28;20325;-76
2022/08/11 06:23:22;;;;;;;2.55;2.35;;;;;;;;;;5047552;28;20227;-75
2022/08/11 06:25:51;;;;;;;2.50;2.20;;;;;;;;;;5056017;28;20309;-75
2022/08/11 06:28:21;;;;;;;3.80;2.30;;;;;;;;;;5023173;28;20247;-76
2022/08/11 06:30:49;;;;;;;2.80;2.38;;;;;;;;;;5055924;28;20215;-75
2022/08/11 06:33:28;;;;;;;2.60;2.40;;;;;;;;;;5067904;28;20362;-75
2022/08/11 06:36:09;;;;;;;2.95;2.42;;;;;;;;;;5064715;28;20289;-75
2022/08/11 06:38:44;;;;;;;4.18;2.28;;;;;;;;;;5081268;28;20217;-76
2022/08/11 06:41:29;;;;;;;2.72;2.20;;;;;;;;;;5061316;28;20221;-75
2022/08/11 06:44:10;;;;;;;4.07;2.38;;;;;;;;;;5077247;28;20217;-74
2022/08/11 06:46:43;;;;;;;3.17;1.98;;;;;;;;;;5074505;28;20240;-75
2022/08/11 06:52:05;;;;;;;2.80;2.22;;;;;;;;;;5047937;28;20237;-74
2022/08/11 06:54:37;;;;;;;2.00;1.80;;;;;;;;;;5068939;28;20216;-76
2022/08/11 07:02:42;;;;;;;2.05;1.83;;;;;;;;;;5046501;28;20279;-76
2022/08/11 07:05:13;;;;;;;2.58;2.03;;;;;;;;;;5068269;28;20224;-76
2022/08/11 07:16:47;;;;;;;1.90;1.80;;;;;;;;;;5048318;28;20221;-75
2022/08/11 07:30:35;;;;;;;4.55;1.88;;;;;;;;;;5054713;28;20230;-76
2022/08/11 07:33:05;;;;;;;2.65;2.13;;;;;;;;;;5067832;28;20221;-75
2022/08/11 07:35:37;;;;;;;4.10;1.85;;;;;;;;;;5061823;28;20218;-75
2022/08/11 07:38:07;;;;;;;3.15;2.00;;;;;;;;;;5052678;28;20214;-77
2022/08/11 07:40:33;;;;;;;2.35;2.15;;;;;;;;;;5048459;28;20223;-74
2022/08/11 07:42:59;;;;;;;2.85;1.92;;;;;;;;;;5055483;28;20211;-76
2022/08/11 07:53:44;;;;;;;2.63;1.77;;;;;;;;;;5054999;28;20759;-75
2022/08/11 07:56:13;;;;;;;2.13;1.90;;;;;;;;;;5053868;28;20252;-76
2022/08/11 08:18:01;;;;;;;3.08;1.98;;;;;;;;;;5046340;28;20301;-75
2022/08/11 08:20:28;;;;;;;4.57;2.30;;;;;;;;;;5050701;28;20243;-74
2022/08/11 08:22:58;;;;;;;2.22;2.03;;;;;;;;;;5040260;28;20221;-75
2022/08/11 08:25:29;;;;;;;3.08;2.22;;;;;;;;;;5046047;28;20293;-75
2022/08/11 08:27:55;;;;;;;2.35;2.15;;;;;;;;;;5053316;28;20253;-75
2022/08/11 08:33:20;;;;;;;3.38;2.10;;;;;;;;;;5073505;28;20228;-75
2022/08/11 08:35:46;;;;;;;2.05;1.90;;;;;;;;;;5055396;28;20218;-74
2022/08/11 08:38:14;;;;;;;3.75;2.25;;;;;;;;;;5055092;28;20222;-74
2022/08/11 08:40:42;;;;;;;5.10;2.25;;;;;;;;;;5045893;28;20224;-75
2022/08/11 08:43:14;;;;;;;4.15;2.10;;;;;;;;;;5063384;28;20266;-74
2022/08/11 08:45:41;;;;;;;3.25;2.20;;;;;;;;;;5039139;28;20688;-74
2022/08/11 08:48:14;;;;;;;4.53;1.75;;;;;;;;;;5058433;28;20233;-73
2022/08/11 08:53:43;;;;;;;2.00;1.80;;;;;;;;;;5060040;28;20240;-74
2022/08/11 08:56:13;;;;;;;2.13;1.60;;;;;;;;;;5063899;28;20206;-75
2022/08/11 08:58:41;;;;;;;2.75;1.50;;;;;;;;;;5054900;28;20214;-73
2022/08/11 09:01:09;;;;;;;1.50;1.40;;;;;;;;;;5046702;28;20218;-73
2022/08/11 09:03:37;;;;;;;3.05;1.70;;;;;;;;;;5059086;28;20223;-74
2022/08/11 09:06:02;;;;;;;1.92;1.45;;;;;;;;;;5067419;28;20709;-75
2022/08/11 09:08:30;;;;;;;1.63;1.50;;;;;;;;;;5034435;28;20234;-74
2022/08/11 09:13:43;;;;;;;3.88;1.50;;;;;;;;;;5048802;28;20225;-74
2022/08/11 09:16:13;;;;;;;3.92;1.60;;;;;;;;;;5039343;28;20224;-74
2022/08/11 09:18:43;;;;;;;2.63;1.70;;;;;;;;;;5044176;28;20601;-74
2022/08/11 09:21:10;;;;;;;1.65;1.55;;;;;;;;;;5061709;28;20232;-75
2022/08/11 09:29:09;;;;;;;1.58;1.45;;;;;;;;;;5046833;28;20593;-74
2022/08/11 09:31:35;;;;;;;1.73;1.52;;;;;;;;;;5054447;28;20222;-75
2022/08/11 09:34:00;;;;;;;3.65;1.55;;;;;;;;;;5045333;28;20207;-75
2022/08/11 09:41:54;;;;;;;2.78;1.70;;;;;;;;;;5059326;28;20215;-73
2022/08/11 09:47:13;;;;;;;1.95;1.55;;;;;;;;;;5048879;28;20253;-73
2022/08/11 09:49:40;;;;;;;2.00;1.48;;;;;;;;;;5043809;28;20234;-74
2022/08/11 09:52:08;;;;;;;1.95;1.63;;;;;;;;;;5030979;28;20210;-74
2022/08/11 09:54:41;;;;;;;1.80;1.70;;;;;;;;;;5037919;28;20690;-74
2022/08/11 09:59:51;;;;;;;2.95;1.65;;;;;;;;;;5049952;28;20214;-74
2022/08/11 10:02:17;;;;;;;3.55;1.73;;;;;;;;;;5041323;28;20223;-75
2022/08/11 10:04:46;;;;;;;2.08;1.75;;;;;;;;;;5057311;28;20225;-75
2022/08/11 10:07:15;;;;;;;2.63;1.70;;;;;;;;;;5056209;28;20700;-73
2022/08/11 10:09:51;;;;;;;1.63;1.52;;;;;;;;;;5047148;28;20241;-73
2022/08/11 10:12:23;;;;;;;3.40;1.60;;;;;;;;;;5056536;28;20230;-74
2022/08/11 10:18:40;;;;;;;1.75;1.50;;;;;;;;;;5052716;28;20751;-73
2022/08/11 10:20:27;;;;;;;1.48;1.30;;;;;;;;;;5056193;28;20242;-73
2022/08/11 10:28:28;;;;;;;2.22;1.50;;;;;;;;;;5044891;28;20908;-75
2022/08/11 10:36:25;;;;;;;3.08;1.40;;;;;;;;;;5067983;28;20231;-74
2022/08/11 10:38:51;;;;;;;2.28;1.40;;;;;;;;;;5065297;28;20350;-74
2022/08/11 10:44:05;;;;;;;1.52;1.42;;;;;;;;;;5060609;28;20688;-75
2022/08/11 10:49:17;;;;;;;2.35;1.30;;;;;;;;;;5048723;28;20329;-75
2022/08/11 11:00:05;;;;;;;1.60;1.50;;;;;;;;;;5061325;28;20222;-74
2022/08/11 11:02:33;;;;;;;1.48;1.38;;;;;;;;;;5042040;28;20218;-74
2022/08/11 11:05:12;;;;;;;1.65;1.55;;;;;;;;;;5040612;28;20242;-74
2022/08/11 11:07:47;;;;;;;3.17;1.88;;;;;;;;;;5065673;28;20869;-73
2022/08/11 11:10:13;;;;;;;3.90;1.30;;;;;;;;;;5064584;28;20297;-73
2022/08/11 11:18:35;;;;;;;2.58;1.40;;;;;;;;;;5067555;28;20226;-73
2022/08/11 11:21:09;;;;;;;2.08;1.30;;;;;;;;;;5070177;28;20218;-74
2022/08/11 11:23:51;;;;;;;4.70;1.60;;;;;;;;;;5076979;28;20762;-74
2022/08/11 11:26:49;;;;;;;1.70;1.58;;;;;;;;;;5084280;28;20260;-73
2022/08/11 11:29:26;;;;;;;3.70;1.75;;;;;;;;;;5076109;28;20349;-74
2022/08/11 11:31:58;;;;;;;2.85;1.55;;;;;;;;;;5083337;28;20235;-74
2022/08/11 11:34:33;;;;;;;1.60;1.50;;;;;;;;;;5078971;28;20245;-76
2022/08/11 11:36:59;;;;;;;1.35;1.25;;;;;;;;;;5076159;28;20224;-74
2022/08/11 11:39:27;;;;;;;1.52;1.42;;;;;;;;;;5056932;28;20298;-74
2022/08/11 11:41:56;;;;;;;3.45;1.52;;;;;;;;;;5051832;28;20248;-75
2022/08/11 11:44:22;;;;;;;2.25;1.30;;;;;;;;;;5075644;28;26501;-74
2022/08/11 11:46:48;;;;;;;1.88;1.40;;;;;;;;;;5049225;28;20234;-73
2022/08/11 11:49:17;;;;;;;2.85;1.60;;;;;;;;;;5065517;28;20226;-75
2022/08/11 11:51:44;;;;;;;2.17;1.50;;;;;;;;;;5040646;28;20711;-75
2022/08/11 11:54:14;;;;;;;2.10;1.50;;;;;;;;;;5046381;28;20265;-75
2022/08/11 11:56:42;;;;;;;1.55;1.30;;;;;;;;;;5033810;28;20226;-75
2022/08/11 12:01:56;;;;;;;1.40;1.30;;;;;;;;;;5065984;28;20648;-75
2022/08/11 12:04:22;;;;;;;1.60;1.20;;;;;;;;;;5041384;28;20227;-74
2022/08/11 12:08:08;;;;;;;1.98;1.38;;;;;;;;;;5047230;28;20729;-75
2022/08/11 12:09:40;;;;;;;2.45;1.45;;;;;;;;;;5050329;28;20284;-74
2022/08/11 12:14:53;;;;;;;1.92;1.30;;;;;;;;;;5054216;28;20205;-74
2022/08/11 12:17:21;;;;;;;2.90;1.33;;;;;;;;;;5051169;28;20256;-74
2022/08/11 12:19:47;;;;;;;1.92;1.40;;;;;;;;;;5044346;28;20676;-74
2022/08/11 12:27:49;;;;;;;1.77;1.20;;;;;;;;;;5070368;28;20230;-74
2022/08/11 12:30:17;;;;;;;2.63;1.20;;;;;;;;;;5046912;28;20223;-74
2022/08/11 12:32:43;;;;;;;1.25;1.10;;;;;;;;;;5046919;28;20581;-74
2022/08/11 12:35:08;;;;;;;3.33;1.40;;;;;;;;;;5079801;28;20223;-75
2022/08/11 12:37:42;;;;;;;1.42;1.30;;;;;;;;;;5028953;28;20244;-73
2022/08/11 12:46:08;;;;;;;1.58;1.48;;;;;;;;;;5049871;28;20352;-74
2022/08/11 12:54:10;;;;;;;1.88;1.40;;;;;;;;;;5045401;28;20221;-76
2022/08/11 13:04:59;;;;;;;2.88;1.30;;;;;;;;;;5053159;28;20222;-75
2022/08/11 13:07:32;;;;;;;1.38;1.27;;;;;;;;;;5041656;28;20283;-74
2022/08/11 13:10:00;;;;;;;4.35;1.50;;;;;;;;;;5052054;28;20225;-74
2022/08/11 13:15:23;;;;;;;1.80;1.40;;;;;;;;;;5043130;28;20257;-77
2022/08/11 13:17:52;;;;;;;4.43;1.23;;;;;;;;;;5060214;28;20232;-76
2022/08/11 13:20:22;;;;;;;1.30;1.20;;;;;;;;;;5041566;28;20623;-76
2022/08/11 13:22:54;;;;;;;1.77;1.42;;;;;;;;;;5040319;28;20304;-75
2022/08/11 13:25:25;;;;;;;1.50;1.40;;;;;;;;;;5032965;28;20250;-75
2022/08/11 13:27:52;;;;;;;1.50;1.40;;;;;;;;;;5049583;28;20231;-74
2022/08/11 13:33:06;;;;;;;2.15;1.42;;;;;;;;;;5044311;28;20214;-74
2022/08/11 13:35:34;;;;;;;1.60;1.23;;;;;;;;;;5033919;28;20310;-74
2022/08/11 13:38:00;;;;;;;2.25;1.35;;;;;;;;;;5047785;28;20225;-73
2022/08/11 13:40:30;;;;;;;1.00;1.00;;;;;;;;;;5027289;28;20222;-76
2022/08/11 13:42:57;;;;;;;3.28;1.40;;;;;;;;;;5032760;28;20221;-74
2022/08/11 13:45:27;;;;;;;2.30;1.13;;;;;;;;;;5044658;28;20213;-74
2022/08/11 13:47:54;;;;;;;1.77;1.38;;;;;;;;;;5042477;28;20234;-73
2022/08/11 13:50:20;;;;;;;1.35;1.10;;;;;;;;;;5058365;28;20600;-74
2022/08/11 13:52:51;;;;;;;1.33;1.20;;;;;;;;;;5050246;28;20218;-75
2022/08/11 13:55:21;;;;;;;3.65;1.25;;;;;;;;;;5040282;28;20715;-74
2022/08/11 13:57:51;;;;;;;1.83;1.08;;;;;;;;;;5045380;28;20256;-74
2022/08/11 14:00:17;;;;;;;5.45;1.40;;;;;;;;;;5054400;28;20283;-75
2022/08/11 14:02:43;;;;;;;1.40;1.30;;;;;;;;;;5042071;28;20683;-75
2022/08/11 14:05:18;;;;;;;2.50;1.33;;;;;;;;;;5038921;28;20300;-75
2022/08/11 14:07:53;;;;;;;2.15;1.48;;;;;;;;;;5056093;28;20226;-74
2022/08/11 14:10:21;;;;;;;1.73;1.30;;;;;;;;;;5048769;28;20221;-74
2022/08/11 14:15:44;;;;;;;2.03;1.13;;;;;;;;;;5074729;28;20226;-74
2022/08/11 14:18:16;;;;;;;1.60;1.20;;;;;;;;;;5050173;28;20229;-74
2022/08/11 14:23:34;;;;;;;1.55;1.20;;;;;;;;;;5063382;28;20648;-73
2022/08/11 14:28:52;;;;;;;1.80;1.30;;;;;;;;;;5072051;28;20279;-73
2022/08/11 14:31:17;;;;;;;1.67;1.30;;;;;;;;;;5024705;28;20225;-75
2022/08/11 14:33:45;;;;;;;4.03;1.30;;;;;;;;;;5039314;28;20210;-75
2022/08/11 14:36:13;;;;;;;2.28;1.30;;;;;;;;;;5044414;28;20237;-76
2022/08/11 14:38:39;;;;;;;1.40;1.30;;;;;;;;;;5046554;28;20397;-75
2022/08/11 14:49:18;;;;;;;1.45;1.10;;;;;;;;;;5046894;28;20227;-75
2022/08/11 14:51:52;;;;;;;2.92;1.30;;;;;;;;;;5047722;28;20687;-74
2022/08/11 14:57:02;;;;;;;1.23;1.10;;;;;;;;;;5046516;28;20595;-76
2022/08/11 14:59:32;;;;;;;2.22;1.10;;;;;;;;;;5047358;28;20242;-74
2022/08/11 15:04:45;;;;;;;2.60;1.05;;;;;;;;;;5056110;28;20222;-74
2022/08/11 15:07:11;;;;;;;1.27;1.17;;;;;;;;;;5026352;28;20238;-75
2022/08/11 15:09:42;;;;;;;2.85;1.23;;;;;;;;;;5044126;28;20231;-75
2022/08/11 15:12:15;;;;;;;1.60;1.23;;;;;;;;;;5040609;28;20280;-74
2022/08/11 15:17:29;;;;;;;1.55;1.20;;;;;;;;;;5066149;28;20283;-75
2022/08/11 15:25:26;;;;;;;3.10;1.25;;;;;;;;;;5047965;28;20284;-75
2022/08/11 15:39:00;;;;;;;3.47;1.27;;;;;;;;;;5051996;28;20243;-75
2022/08/11 15:47:26;;;;;;;2.58;1.20;;;;;;;;;;5015961;28;20771;-75
2022/08/11 15:49:53;;;;;;;2.03;1.30;;;;;;;;;;5054731;28;20223;-75
2022/08/11 15:52:26;;;;;;;3.42;1.40;;;;;;;;;;5056143;28;20240;-75
2022/08/11 15:54:52;;;;;;;3.20;1.10;;;;;;;;;;5045161;28;20692;-75
2022/08/11 16:05:21;;;;;;;1.48;1.27;;;;;;;;;;5043359;28;20222;-75
2022/08/11 16:07:52;;;;;;;7.65;2.20;;;;;;;;;;5031489;28;20720;-75
2022/08/11 16:10:20;;;;;;;6.47;1.85;;;;;;;;;;5064068;28;20215;-75
2022/08/11 16:18:40;;;;;;;7.75;1.65;;;;;;;;;;5049475;28;20214;-74
2022/08/11 16:21:26;;;;;;;3.20;1.35;;;;;;;;;;5057429;28;20241;-75
2022/08/11 16:23:54;;;;;;;1.35;1.25;;;;;;;;;;5063503;28;20224;-75
2022/08/11 16:26:26;;;;;;;2.88;1.40;;;;;;;;;;5032927;28;20228;-75
2022/08/11 16:28:52;;;;;;;2.28;1.40;;;;;;;;;;5056289;28;20233;-75
2022/08/11 16:31:22;;;;;;;1.63;1.52;;;;;;;;;;5044184;28;20225;-74
2022/08/11 16:33:52;;;;;;;1.60;1.30;;;;;;;;;;5051867;28;20250;-74
2022/08/11 16:39:07;;;;;;;2.40;1.30;;;;;;;;;;5061642;28;20227;-75
2022/08/11 16:47:05;;;;;;;2.08;1.38;;;;;;;;;;5064907;28;20241;-75
2022/08/11 16:49:38;;;;;;;1.20;1.10;;;;;;;;;;5061148;28;20683;-74
2022/08/11 16:52:10;;;;;;;2.13;1.25;;;;;;;;;;5050166;28;20258;-74
2022/08/11 16:54:36;;;;;;;1.15;1.08;;;;;;;;;;5068547;28;20226;-75
2022/08/11 16:59:57;;;;;;;2.05;1.45;;;;;;;;;;5065978;28;20231;-75
2022/08/11 17:13:58;;;;;;;3.97;1.40;;;;;;;;;;5063965;28;20222;-74
2022/08/11 17:16:42;;;;;;;4.35;1.52;;;;;;;;;;5076922;28;20236;-76
2022/08/11 17:19:28;;;;;;;7.97;1.50;;;;;;;;;;5050599;28;20249;-76
2022/08/11 17:24:42;;;;;;;3.88;1.33;;;;;;;;;;5044699;28;20218;-75
2022/08/11 17:27:07;;;;;;;1.95;1.02;;;;;;;;;;5027520;28;20226;-75
2022/08/11 17:29:34;;;;;;;2.47;1.20;;;;;;;;;;5062530;28;20222;-74
2022/08/11 17:37:31;;;;;;;2.17;1.42;;;;;;;;;;5059494;28;20247;-74
2022/08/11 17:39:58;;;;;;;1.88;1.10;;;;;;;;;;5049073;28;20227;-73
2022/08/11 17:50:42;;;;;;;1.92;0.90;;;;;;;;;;5050524;28;20215;-73
2022/08/11 18:01:24;;;;;;;2.78;1.50;;;;;;;;;;5052753;28;20675;-74
2022/08/11 18:03:52;;;;;;;0.95;0.90;;;;;;;;;;5043290;28;20227;-74
2022/08/11 18:06:17;;;;;;;2.17;0.93;;;;;;;;;;5056493;28;20259;-74
